sensor_id;sensor_type;location;lat;lon;timestamp;pressure;altitude;pressure_sealevel;temperature;humidity
68226;BME280;55045;49.410;11.030;2022-11-15T00:02:55;98038.91;;;5.00;100.00
68226;BME280;55045;49.410;11.030;2022-11-15T00:06:18;98032.97;;;4.98;100.00
68226;BME280;55045;49.410;11.030;2022-11-15T00:09:41;98031.19;;;5.00;100.00
68226;BME280;55045;49.410;11.030;2022-11-15T00:13:06;98028.50;;;5.04;100.00
68226;BME280;55045;49.410;11.030;2022-11-15T00:16:29;98033.44;;;4.81;100.00
68226;BME280;55045;49.410;11.030;2022-11-15T00:19:51;97965.13;;;4.07;100.00
68226;BME280;55045;49.410;11.030;2022-11-15T00:23:13;98035.41;;;4.37;100.00
68226;BME280;55045;49.410;11.030;2022-11-15T00:26:35;98044.66;;;4.44;100.00
68226;BME280;55045;49.410;11.030;2022-11-15T00:29:56;98038.13;;;4.65;100.00
68226;BME280;55045;49.410;11.030;2022-11-15T00:33:19;98019.19;;;4.35;100.00
68226;BME280;55045;49.410;11.030;2022-11-15T00:36:41;98040.78;;;4.26;100.00
68226;BME280;55045;49.410;11.030;2022-11-15T00:40:03;97968.00;;;3.95;100.00
68226;BME280;55045;49.410;11.030;2022-11-15T00:43:26;98032.56;;;4.48;100.00
68226;BME280;55045;49.410;11.030;2022-11-15T00:46:49;97993.47;;;4.37;100.00
68226;BME280;55045;49.410;11.030;2022-11-15T00:50:13;98022.41;;;4.08;100.00
68226;BME280;55045;49.410;11.030;2022-11-15T00:53:35;98035.88;;;4.17;100.00
68226;BME280;55045;49.410;11.030;2022-11-15T00:56:57;98035.38;;;4.03;100.00
68226;BME280;55045;49.410;11.030;2022-11-15T01:00:19;98005.28;;;3.72;100.00
68226;BME280;55045;49.410;11.030;2022-11-15T01:03:41;98024.50;;;4.27;100.00
68226;BME280;55045;49.410;11.030;2022-11-15T01:07:04;98019.69;;;4.49;100.00
68226;BME280;55045;49.410;11.030;2022-11-15T01:10:26;98016.59;;;4.37;100.00
68226;BME280;55045;49.410;11.030;2022-11-15T01:13:47;98010.59;;;4.36;100.00
68226;BME280;55045;49.410;11.030;2022-11-15T01:17:09;97996.66;;;4.46;100.00
68226;BME280;55045;49.410;11.030;2022-11-15T01:20:31;98018.00;;;3.79;100.00
68226;BME280;55045;49.410;11.030;2022-11-15T01:23:55;98014.47;;;4.18;100.00
68226;BME280;55045;49.410;11.030;2022-11-15T01:27:17;98014.19;;;4.29;100.00
68226;BME280;55045;49.410;11.030;2022-11-15T01:30:40;98007.09;;;4.04;100.00
68226;BME280;55045;49.410;11.030;2022-11-15T01:34:02;97998.88;;;3.92;100.00
68226;BME280;55045;49.410;11.030;2022-11-15T01:37:23;97993.56;;;4.33;100.00
68226;BME280;55045;49.410;11.030;2022-11-15T01:40:47;97989.63;;;4.20;100.00
68226;BME280;55045;49.410;11.030;2022-11-15T01:44:36;97894.41;;;3.61;100.00
68226;BME280;55045;49.410;11.030;2022-11-15T01:47:59;97996.28;;;4.27;100.00
68226;BME280;55045;49.410;11.030;2022-11-15T01:51:24;97988.06;;;4.13;100.00
68226;BME280;55045;49.410;11.030;2022-11-15T01:54:50;97981.88;;;4.22;100.00
68226;BME280;55045;49.410;11.030;2022-11-15T01:58:15;97972.16;;;4.00;100.00
68226;BME280;55045;49.410;11.030;2022-11-15T02:01:38;97957.84;;;3.90;100.00
68226;BME280;55045;49.410;11.030;2022-11-15T02:05:00;97924.78;;;4.12;100.00
68226;BME280;55045;49.410;11.030;2022-11-15T02:08:22;97958.53;;;3.61;100.00
68226;BME280;55045;49.410;11.030;2022-11-15T02:11:44;97964.97;;;3.78;100.00
68226;BME280;55045;49.410;11.030;2022-11-15T02:15:10;97960.84;;;3.72;100.00
68226;BME280;55045;49.410;11.030;2022-11-15T02:18:35;97945.72;;;3.61;100.00
68226;BME280;55045;49.410;11.030;2022-11-15T02:22:07;97953.53;;;3.55;100.00
68226;BME280;55045;49.410;11.030;2022-11-15T02:25:38;97939.84;;;3.92;100.00
68226;BME280;55045;49.410;11.030;2022-11-15T02:29:05;97944.44;;;3.79;100.00
68226;BME280;55045;49.410;11.030;2022-11-15T02:32:36;97938.78;;;4.00;100.00
68226;BME280;55045;49.410;11.030;2022-11-15T02:36:02;97933.09;;;3.52;100.00
68226;BME280;55045;49.410;11.030;2022-11-15T02:39:32;97917.91;;;3.43;100.00
68226;BME280;55045;49.410;11.030;2022-11-15T02:43:01;97902.31;;;3.15;100.00
68226;BME280;55045;49.410;11.030;2022-11-15T02:46:45;97936.19;;;3.29;100.00
68226;BME280;55045;49.410;11.030;2022-11-15T02:50:31;97924.25;;;3.28;100.00
68226;BME280;55045;49.410;11.030;2022-11-15T02:53:54;97813.34;;;2.44;100.00
68226;BME280;55045;49.410;11.030;2022-11-15T02:57:22;97916.53;;;3.30;100.00
68226;BME280;55045;49.410;11.030;2022-11-15T03:00:56;97892.06;;;3.52;100.00
68226;BME280;55045;49.410;11.030;2022-11-15T03:04:36;97892.34;;;3.75;100.00
68226;BME280;55045;49.410;11.030;2022-11-15T03:08:06;97897.53;;;3.38;100.00
68226;BME280;55045;49.410;11.030;2022-11-15T03:11:35;97894.38;;;3.26;100.00
68226;BME280;55045;49.410;11.030;2022-11-15T03:15:01;97884.28;;;3.20;100.00
68226;BME280;55045;49.410;11.030;2022-11-15T03:18:31;97879.38;;;3.10;100.00
68226;BME280;55045;49.410;11.030;2022-11-15T03:21:55;97890.88;;;3.30;100.00
68226;BME280;55045;49.410;11.030;2022-11-15T03:25:23;97892.97;;;3.12;100.00
68226;BME280;55045;49.410;11.030;2022-11-15T03:28:49;97887.84;;;3.12;100.00
68226;BME280;55045;49.410;11.030;2022-11-15T03:32:15;97879.47;;;3.43;100.00
68226;BME280;55045;49.410;11.030;2022-11-15T03:35:42;97868.41;;;3.41;100.00
68226;BME280;55045;49.410;11.030;2022-11-15T03:39:07;97873.09;;;3.59;100.00
68226;BME280;55045;49.410;11.030;2022-11-15T03:42:35;97864.59;;;3.22;100.00
68226;BME280;55045;49.410;11.030;2022-11-15T03:46:02;97878.06;;;2.91;100.00
68226;BME280;55045;49.410;11.030;2022-11-15T03:49:28;97869.94;;;3.11;100.00
68226;BME280;55045;49.410;11.030;2022-11-15T03:52:54;97854.84;;;3.37;100.00
68226;BME280;55045;49.410;11.030;2022-11-15T03:56:16;97843.81;;;2.95;100.00
68226;BME280;55045;49.410;11.030;2022-11-15T03:59:39;97865.16;;;2.97;100.00
68226;BME280;55045;49.410;11.030;2022-11-15T04:03:00;97855.34;;;3.14;100.00
68226;BME280;55045;49.410;11.030;2022-11-15T04:06:22;97861.13;;;2.84;100.00
68226;BME280;55045;49.410;11.030;2022-11-15T04:09:44;97859.72;;;2.71;100.00
68226;BME280;55045;49.410;11.030;2022-11-15T04:13:24;97867.75;;;2.94;100.00
68226;BME280;55045;49.410;11.030;2022-11-15T04:16:48;97876.00;;;2.68;100.00
68226;BME280;55045;49.410;11.030;2022-11-15T04:20:12;97862.16;;;2.77;100.00
68226;BME280;55045;49.410;11.030;2022-11-15T04:23:52;97870.75;;;2.74;100.00
68226;BME280;55045;49.410;11.030;2022-11-15T04:27:31;97872.59;;;3.08;100.00
68226;BME280;55045;49.410;11.030;2022-11-15T04:30:53;97858.31;;;2.96;100.00
68226;BME280;55045;49.410;11.030;2022-11-15T04:35:08;97854.72;;;2.65;100.00
68226;BME280;55045;49.410;11.030;2022-11-15T04:38:30;97855.22;;;3.56;100.00
68226;BME280;55045;49.410;11.030;2022-11-15T04:41:52;97861.56;;;3.04;100.00
68226;BME280;55045;49.410;11.030;2022-11-15T04:45:13;97849.63;;;3.40;100.00
68226;BME280;55045;49.410;11.030;2022-11-15T04:48:35;97847.63;;;3.86;100.00
68226;BME280;55045;49.410;11.030;2022-11-15T04:51:58;97823.09;;;3.75;100.00
68226;BME280;55045;49.410;11.030;2022-11-15T04:55:20;97828.81;;;3.53;100.00
68226;BME280;55045;49.410;11.030;2022-11-15T04:58:42;97828.41;;;3.69;100.00
68226;BME280;55045;49.410;11.030;2022-11-15T05:02:04;97828.09;;;2.73;100.00
68226;BME280;55045;49.410;11.030;2022-11-15T05:05:26;97818.28;;;3.29;100.00
68226;BME280;55045;49.410;11.030;2022-11-15T05:08:48;97813.81;;;3.36;100.00
68226;BME280;55045;49.410;11.030;2022-11-15T05:12:10;97801.97;;;3.32;100.00
68226;BME280;55045;49.410;11.030;2022-11-15T05:15:33;97795.09;;;3.34;100.00
68226;BME280;55045;49.410;11.030;2022-11-15T05:18:56;97804.47;;;2.99;100.00
68226;BME280;55045;49.410;11.030;2022-11-15T05:22:18;97814.31;;;2.79;100.00
68226;BME280;55045;49.410;11.030;2022-11-15T05:25:42;97814.16;;;2.85;100.00
68226;BME280;55045;49.410;11.030;2022-11-15T05:29:08;97810.28;;;2.69;100.00
68226;BME280;55045;49.410;11.030;2022-11-15T05:32:30;97805.19;;;2.67;100.00
68226;BME280;55045;49.410;11.030;2022-11-15T05:35:56;97804.34;;;2.65;100.00
68226;BME280;55045;49.410;11.030;2022-11-15T05:39:20;97789.41;;;2.47;100.00
68226;BME280;55045;49.410;11.030;2022-11-15T05:42:44;97810.72;;;2.47;100.00
68226;BME280;55045;49.410;11.030;2022-11-15T05:46:06;97811.00;;;2.35;100.00
68226;BME280;55045;49.410;11.030;2022-11-15T05:49:31;97810.25;;;2.28;100.00
68226;BME280;55045;49.410;11.030;2022-11-15T05:52:56;97801.75;;;2.28;100.00
68226;BME280;55045;49.410;11.030;2022-11-15T05:56:24;97807.88;;;2.19;100.00
68226;BME280;55045;49.410;11.030;2022-11-15T05:59:47;97801.72;;;2.70;100.00
68226;BME280;55045;49.410;11.030;2022-11-15T06:03:09;97796.88;;;2.14;100.00
68226;BME280;55045;49.410;11.030;2022-11-15T06:06:31;97794.50;;;2.48;100.00
68226;BME280;55045;49.410;11.030;2022-11-15T06:09:53;97801.81;;;2.25;100.00
68226;BME280;55045;49.410;11.030;2022-11-15T06:13:15;97810.44;;;2.19;100.00
68226;BME280;55045;49.410;11.030;2022-11-15T06:16:38;97800.19;;;2.19;100.00
68226;BME280;55045;49.410;11.030;2022-11-15T06:20:03;97788.41;;;2.12;100.00
68226;BME280;55045;49.410;11.030;2022-11-15T06:23:25;97805.91;;;2.32;100.00
68226;BME280;55045;49.410;11.030;2022-11-15T06:26:47;97811.41;;;2.54;100.00
68226;BME280;55045;49.410;11.030;2022-11-15T06:30:10;97811.78;;;2.76;100.00
68226;BME280;55045;49.410;11.030;2022-11-15T06:33:38;97812.22;;;2.57;100.00
68226;BME280;55045;49.410;11.030;2022-11-15T06:37:01;97809.63;;;2.59;100.00
68226;BME280;55045;49.410;11.030;2022-11-15T06:40:25;97811.47;;;2.52;100.00
68226;BME280;55045;49.410;11.030;2022-11-15T06:43:47;97792.31;;;2.30;100.00
68226;BME280;55045;49.410;11.030;2022-11-15T06:47:09;97802.03;;;2.13;100.00
68226;BME280;55045;49.410;11.030;2022-11-15T06:50:32;97818.22;;;2.15;100.00
68226;BME280;55045;49.410;11.030;2022-11-15T06:53:54;97789.56;;;2.39;100.00
68226;BME280;55045;49.410;11.030;2022-11-15T06:57:15;97823.69;;;2.80;100.00
68226;BME280;55045;49.410;11.030;2022-11-15T07:00:37;97805.00;;;2.76;100.00
68226;BME280;55045;49.410;11.030;2022-11-15T07:04:00;97820.81;;;2.94;100.00
68226;BME280;55045;49.410;11.030;2022-11-15T07:07:23;97812.66;;;3.13;100.00
68226;BME280;55045;49.410;11.030;2022-11-15T07:10:58;97802.31;;;3.16;100.00
68226;BME280;55045;49.410;11.030;2022-11-15T07:14:22;97761.69;;;3.37;100.00
68226;BME280;55045;49.410;11.030;2022-11-15T07:17:44;97789.78;;;3.74;100.00
68226;BME280;55045;49.410;11.030;2022-11-15T07:21:08;97784.72;;;3.72;100.00
68226;BME280;55045;49.410;11.030;2022-11-15T07:24:31;97783.22;;;3.64;100.00
68226;BME280;55045;49.410;11.030;2022-11-15T07:27:57;97777.91;;;4.02;100.00
68226;BME280;55045;49.410;11.030;2022-11-15T07:31:19;97782.72;;;4.15;100.00
68226;BME280;55045;49.410;11.030;2022-11-15T07:34:41;97781.91;;;4.13;100.00
68226;BME280;55045;49.410;11.030;2022-11-15T07:38:05;97765.34;;;3.93;100.00
68226;BME280;55045;49.410;11.030;2022-11-15T07:41:28;97778.47;;;4.14;100.00
68226;BME280;55045;49.410;11.030;2022-11-15T07:44:50;97774.28;;;4.39;100.00
68226;BME280;55045;49.410;11.030;2022-11-15T07:48:15;97767.88;;;4.54;100.00
68226;BME280;55045;49.410;11.030;2022-11-15T07:51:37;97773.59;;;4.63;100.00
68226;BME280;55045;49.410;11.030;2022-11-15T07:54:59;97762.88;;;4.77;100.00
68226;BME280;55045;49.410;11.030;2022-11-15T07:58:22;97764.59;;;4.50;100.00
68226;BME280;55045;49.410;11.030;2022-11-15T08:01:45;97761.03;;;4.82;100.00
68226;BME280;55045;49.410;11.030;2022-11-15T08:05:09;97766.56;;;4.70;100.00
68226;BME280;55045;49.410;11.030;2022-11-15T08:08:30;97768.34;;;4.67;100.00
68226;BME280;55045;49.410;11.030;2022-11-15T08:11:52;97755.91;;;4.82;100.00
68226;BME280;55045;49.410;11.030;2022-11-15T08:15:16;97759.53;;;5.03;100.00
68226;BME280;55045;49.410;11.030;2022-11-15T08:18:37;97764.38;;;5.12;100.00
68226;BME280;55045;49.410;11.030;2022-11-15T08:21:59;97752.78;;;5.26;100.00
68226;BME280;55045;49.410;11.030;2022-11-15T08:25:21;97751.34;;;5.43;100.00
68226;BME280;55045;49.410;11.030;2022-11-15T08:28:43;97748.41;;;5.54;100.00
68226;BME280;55045;49.410;11.030;2022-11-15T08:32:06;97748.69;;;5.96;100.00
68226;BME280;55045;49.410;11.030;2022-11-15T08:35:28;97726.81;;;5.83;100.00
68226;BME280;55045;49.410;11.030;2022-11-15T08:38:50;97736.25;;;6.07;100.00
68226;BME280;55045;49.410;11.030;2022-11-15T08:42:13;97737.94;;;6.09;100.00
68226;BME280;55045;49.410;11.030;2022-11-15T08:45:45;97690.22;;;5.75;100.00
68226;BME280;55045;49.410;11.030;2022-11-15T08:49:39;97731.72;;;5.91;100.00
68226;BME280;55045;49.410;11.030;2022-11-15T08:53:30;97734.63;;;5.80;100.00
68226;BME280;55045;49.410;11.030;2022-11-15T08:56:52;97746.00;;;6.46;100.00
68226;BME280;55045;49.410;11.030;2022-11-15T09:00:14;97732.28;;;6.68;100.00
68226;BME280;55045;49.410;11.030;2022-11-15T09:03:36;97722.06;;;6.66;100.00
68226;BME280;55045;49.410;11.030;2022-11-15T09:06:59;97713.91;;;7.19;100.00
68226;BME280;55045;49.410;11.030;2022-11-15T09:10:22;97703.09;;;7.31;100.00
68226;BME280;55045;49.410;11.030;2022-11-15T09:13:44;97713.72;;;7.23;100.00
68226;BME280;55045;49.410;11.030;2022-11-15T09:17:07;97707.63;;;7.46;100.00
68226;BME280;55045;49.410;11.030;2022-11-15T09:20:29;97697.16;;;7.29;100.00
68226;BME280;55045;49.410;11.030;2022-11-15T09:23:52;97687.41;;;7.76;100.00
68226;BME280;55045;49.410;11.030;2022-11-15T09:27:17;97685.75;;;8.13;100.00
68226;BME280;55045;49.410;11.030;2022-11-15T09:30:39;97685.19;;;8.25;100.00
68226;BME280;55045;49.410;11.030;2022-11-15T09:34:01;97665.38;;;8.45;100.00
68226;BME280;55045;49.410;11.030;2022-11-15T09:37:22;97654.13;;;8.08;100.00
68226;BME280;55045;49.410;11.030;2022-11-15T09:40:47;97630.44;;;8.17;100.00
68226;BME280;55045;49.410;11.030;2022-11-15T09:44:29;97651.06;;;8.19;100.00
68226;BME280;55045;49.410;11.030;2022-11-15T09:48:07;97660.66;;;8.34;100.00
68226;BME280;55045;49.410;11.030;2022-11-15T09:51:44;97648.09;;;8.99;100.00
68226;BME280;55045;49.410;11.030;2022-11-15T09:54:52;97650.84;;;8.78;100.00
68226;BME280;55045;49.410;11.030;2022-11-15T09:58:03;97627.69;;;8.58;100.00
68226;BME280;55045;49.410;11.030;2022-11-15T10:01:16;97648.88;;;9.35;100.00
68226;BME280;55045;49.410;11.030;2022-11-15T10:04:21;97647.06;;;9.03;100.00
68226;BME280;55045;49.410;11.030;2022-11-15T10:07:27;97637.94;;;9.13;100.00
68226;BME280;55045;49.410;11.030;2022-11-15T10:10:35;97633.59;;;9.64;100.00
68226;BME280;55045;49.410;11.030;2022-11-15T10:13:45;97635.81;;;9.71;100.00
68226;BME280;55045;49.410;11.030;2022-11-15T10:17:20;97604.75;;;10.19;100.00
68226;BME280;55045;49.410;11.030;2022-11-15T10:20:29;97623.81;;;10.02;100.00
68226;BME280;55045;49.410;11.030;2022-11-15T10:23:34;97612.22;;;10.25;100.00
68226;BME280;55045;49.410;11.030;2022-11-15T10:26:38;97597.91;;;10.49;100.00
68226;BME280;55045;49.410;11.030;2022-11-15T10:29:47;97596.28;;;10.62;100.00
68226;BME280;55045;49.410;11.030;2022-11-15T10:35:22;97557.44;;;9.84;100.00
68226;BME280;55045;49.410;11.030;2022-11-15T10:38:26;97554.94;;;10.14;100.00
68226;BME280;55045;49.410;11.030;2022-11-15T10:41:32;97577.44;;;10.45;100.00
68226;BME280;55045;49.410;11.030;2022-11-15T10:44:42;97475.63;;;9.95;100.00
68226;BME280;55045;49.410;11.030;2022-11-15T10:47:45;97547.16;;;10.45;100.00
68226;BME280;55045;49.410;11.030;2022-11-15T10:50:52;97560.78;;;10.79;100.00
68226;BME280;55045;49.410;11.030;2022-11-15T10:53:59;97537.66;;;11.04;100.00
68226;BME280;55045;49.410;11.030;2022-11-15T10:57:06;97532.84;;;11.41;100.00
68226;BME280;55045;49.410;11.030;2022-11-15T11:00:27;97544.59;;;11.75;100.00
68226;BME280;55045;49.410;11.030;2022-11-15T11:03:35;97489.16;;;11.33;100.00
68226;BME280;55045;49.410;11.030;2022-11-15T11:06:48;97538.41;;;11.63;100.00
68226;BME280;55045;49.410;11.030;2022-11-15T11:09:58;97536.28;;;11.41;100.00
68226;BME280;55045;49.410;11.030;2022-11-15T11:13:13;97529.28;;;11.85;100.00
68226;BME280;55045;49.410;11.030;2022-11-15T11:16:36;97525.28;;;11.93;100.00
68226;BME280;55045;49.410;11.030;2022-11-15T11:19:51;97495.03;;;11.37;100.00
68226;BME280;55045;49.410;11.030;2022-11-15T11:23:04;97425.75;;;11.78;100.00
68226;BME280;55045;49.410;11.030;2022-11-15T11:26:24;97470.00;;;12.18;100.00
68226;BME280;55045;49.410;11.030;2022-11-15T11:29:42;97499.63;;;11.60;100.00
68226;BME280;55045;49.410;11.030;2022-11-15T11:33:01;97405.00;;;11.64;100.00
68226;BME280;55045;49.410;11.030;2022-11-15T11:36:18;97479.56;;;11.76;100.00
68226;BME280;55045;49.410;11.030;2022-11-15T11:39:33;97506.91;;;12.76;100.00
68226;BME280;55045;49.410;11.030;2022-11-15T11:42:45;97504.56;;;12.46;100.00
68226;BME280;55045;49.410;11.030;2022-11-15T11:46:06;97457.81;;;12.58;100.00
68226;BME280;55045;49.410;11.030;2022-11-15T11:49:18;97467.38;;;12.71;100.00
68226;BME280;55045;49.410;11.030;2022-11-15T11:52:27;97426.47;;;12.47;100.00
68226;BME280;55045;49.410;11.030;2022-11-15T11:55:37;97486.13;;;12.36;100.00
68226;BME280;55045;49.410;11.030;2022-11-15T11:58:44;97327.63;;;11.69;100.00
68226;BME280;55045;49.410;11.030;2022-11-15T12:01:48;97448.84;;;12.75;100.00
68226;BME280;55045;49.410;11.030;2022-11-15T12:04:54;97469.09;;;12.32;100.00
68226;BME280;55045;49.410;11.030;2022-11-15T12:08:04;97466.13;;;13.14;100.00
68226;BME280;55045;49.410;11.030;2022-11-15T12:11:17;97363.41;;;11.78;100.00
68226;BME280;55045;49.410;11.030;2022-11-15T12:14:28;97437.41;;;12.52;100.00
68226;BME280;55045;49.410;11.030;2022-11-15T12:17:33;97332.06;;;11.94;100.00
68226;BME280;55045;49.410;11.030;2022-11-15T12:20:39;97462.78;;;12.74;100.00
68226;BME280;55045;49.410;11.030;2022-11-15T12:24:11;97465.72;;;12.69;100.00
68226;BME280;55045;49.410;11.030;2022-11-15T12:27:21;97285.25;;;11.42;100.00
68226;BME280;55045;49.410;11.030;2022-11-15T12:30:41;97456.66;;;12.62;100.00
68226;BME280;55045;49.410;11.030;2022-11-15T12:33:48;97261.25;;;11.25;100.00
68226;BME280;55045;49.410;11.030;2022-11-15T12:36:52;97451.69;;;12.97;100.00
68226;BME280;55045;49.410;11.030;2022-11-15T12:40:21;97454.38;;;12.58;100.00
68226;BME280;55045;49.410;11.030;2022-11-15T12:43:41;97373.44;;;11.70;100.00
68226;BME280;55045;49.410;11.030;2022-11-15T12:47:21;97351.00;;;11.69;100.00
68226;BME280;55045;49.410;11.030;2022-11-15T12:50:53;97446.13;;;12.51;100.00
68226;BME280;55045;49.410;11.030;2022-11-15T12:53:57;97439.28;;;12.76;100.00
68226;BME280;55045;49.410;11.030;2022-11-15T12:57:29;97435.50;;;13.05;100.00
68226;BME280;55045;49.410;11.030;2022-11-15T13:00:43;97438.59;;;12.21;100.00
68226;BME280;55045;49.410;11.030;2022-11-15T13:04:08;97319.50;;;11.61;100.00
68226;BME280;55045;49.410;11.030;2022-11-15T13:07:55;97433.41;;;12.34;100.00
68226;BME280;55045;49.410;11.030;2022-11-15T13:14:49;97408.00;;;12.12;100.00
68226;BME280;55045;49.410;11.030;2022-11-15T13:17:55;97345.88;;;11.95;100.00
68226;BME280;55045;49.410;11.030;2022-11-15T13:21:01;97434.31;;;12.07;100.00
68226;BME280;55045;49.410;11.030;2022-11-15T13:24:27;97300.84;;;11.42;100.00
68226;BME280;55045;49.410;11.030;2022-11-15T13:27:31;97308.59;;;11.29;100.00
68226;BME280;55045;49.410;11.030;2022-11-15T13:30:34;97334.69;;;11.67;100.00
68226;BME280;55045;49.410;11.030;2022-11-15T13:33:39;97359.69;;;11.82;100.00
68226;BME280;55045;49.410;11.030;2022-11-15T13:36:43;97282.13;;;11.10;100.00
68226;BME280;55045;49.410;11.030;2022-11-15T13:39:47;97349.50;;;11.79;100.00
68226;BME280;55045;49.410;11.030;2022-11-15T13:42:51;97383.94;;;12.48;100.00
68226;BME280;55045;49.410;11.030;2022-11-15T13:46:04;97397.56;;;11.99;100.00
68226;BME280;55045;49.410;11.030;2022-11-15T13:49:09;97280.78;;;11.44;100.00
68226;BME280;55045;49.410;11.030;2022-11-15T13:52:15;97383.09;;;11.95;100.00
68226;BME280;55045;49.410;11.030;2022-11-15T13:55:21;97386.94;;;11.90;100.00
68226;BME280;55045;49.410;11.030;2022-11-15T13:58:25;97387.47;;;11.95;100.00
68226;BME280;55045;49.410;11.030;2022-11-15T14:01:32;97264.44;;;11.16;100.00
68226;BME280;55045;49.410;11.030;2022-11-15T14:04:39;97269.06;;;11.11;100.00
68226;BME280;55045;49.410;11.030;2022-11-15T14:07:52;97379.91;;;11.77;100.00
68226;BME280;55045;49.410;11.030;2022-11-15T14:11:11;97250.78;;;11.40;100.00
68226;BME280;55045;49.410;11.030;2022-11-15T14:14:19;97376.09;;;11.83;100.00
68226;BME280;55045;49.410;11.030;2022-11-15T14:17:35;97274.94;;;11.28;100.00
68226;BME280;55045;49.410;11.030;2022-11-15T14:20:40;97380.00;;;11.49;100.00
68226;BME280;55045;49.410;11.030;2022-11-15T14:23:45;97238.91;;;10.55;100.00
68226;BME280;55045;49.410;11.030;2022-11-15T14:26:48;97375.91;;;11.59;100.00
68226;BME280;55045;49.410;11.030;2022-11-15T14:29:52;97247.03;;;11.04;100.00
68226;BME280;55045;49.410;11.030;2022-11-15T14:32:56;97365.25;;;11.22;100.00
68226;BME280;55045;49.410;11.030;2022-11-15T14:36:04;97321.03;;;10.68;100.00
68226;BME280;55045;49.410;11.030;2022-11-15T14:39:08;97211.31;;;10.11;100.00
68226;BME280;55045;49.410;11.030;2022-11-15T14:42:11;97236.31;;;9.84;100.00
68226;BME280;55045;49.410;11.030;2022-11-15T14:45:17;97346.59;;;10.89;100.00
68226;BME280;55045;49.410;11.030;2022-11-15T14:48:21;97228.00;;;10.07;100.00
68226;BME280;55045;49.410;11.030;2022-11-15T14:51:26;97214.00;;;9.67;100.00
68226;BME280;55045;49.410;11.030;2022-11-15T14:54:29;97338.53;;;10.36;100.00
68226;BME280;55045;49.410;11.030;2022-11-15T14:57:32;97224.44;;;9.51;100.00
68226;BME280;55045;49.410;11.030;2022-11-15T15:00:37;97330.25;;;10.16;100.00
68226;BME280;55045;49.410;11.030;2022-11-15T15:03:41;97329.94;;;10.22;100.00
68226;BME280;55045;49.410;11.030;2022-11-15T15:06:47;97195.78;;;9.24;100.00
68226;BME280;55045;49.410;11.030;2022-11-15T15:09:51;97325.13;;;10.00;100.00
68226;BME280;55045;49.410;11.030;2022-11-15T15:13:17;97206.56;;;9.46;100.00
68226;BME280;55045;49.410;11.030;2022-11-15T15:16:21;97167.13;;;9.13;100.00
68226;BME280;55045;49.410;11.030;2022-11-15T15:19:24;97298.97;;;10.19;100.00
68226;BME280;55045;49.410;11.030;2022-11-15T15:22:30;97173.06;;;8.69;100.00
68226;BME280;55045;49.410;11.030;2022-11-15T15:25:34;97087.53;;;7.79;100.00
68226;BME280;55045;49.410;11.030;2022-11-15T15:28:38;97303.53;;;8.78;100.00
68226;BME280;55045;49.410;11.030;2022-11-15T15:31:42;97307.28;;;8.56;100.00
68226;BME280;55045;49.410;11.030;2022-11-15T15:34:45;97245.53;;;8.19;100.00
68226;BME280;55045;49.410;11.030;2022-11-15T15:37:50;97260.03;;;8.70;100.00
68226;BME280;55045;49.410;11.030;2022-11-15T15:40:54;97276.13;;;8.59;100.00
68226;BME280;55045;49.410;11.030;2022-11-15T15:43:57;97300.22;;;8.60;100.00
68226;BME280;55045;49.410;11.030;2022-11-15T15:47:01;97308.72;;;8.62;100.00
68226;BME280;55045;49.410;11.030;2022-11-15T15:50:17;97254.59;;;8.26;100.00
68226;BME280;55045;49.410;11.030;2022-11-15T15:53:24;97312.56;;;8.37;100.00
68226;BME280;55045;49.410;11.030;2022-11-15T15:56:27;97317.84;;;8.19;100.00
68226;BME280;55045;49.410;11.030;2022-11-15T15:59:31;97317.16;;;8.15;100.00
68226;BME280;55045;49.410;11.030;2022-11-15T16:02:35;97307.41;;;8.37;100.00
68226;BME280;55045;49.410;11.030;2022-11-15T16:05:42;97310.28;;;8.31;100.00
68226;BME280;55045;49.410;11.030;2022-11-15T16:08:47;97319.66;;;8.17;100.00
68226;BME280;55045;49.410;11.030;2022-11-15T16:12:10;97327.47;;;8.15;100.00
68226;BME280;55045;49.410;11.030;2022-11-15T16:15:14;97310.91;;;8.36;100.00
68226;BME280;55045;49.410;11.030;2022-11-15T16:18:18;97261.66;;;8.40;100.00
68226;BME280;55045;49.410;11.030;2022-11-15T16:21:21;97234.13;;;7.90;100.00
68226;BME280;55045;49.410;11.030;2022-11-15T16:24:26;97318.03;;;8.31;100.00
68226;BME280;55045;49.410;11.030;2022-11-15T16:27:29;97186.13;;;7.35;100.00
68226;BME280;55045;49.410;11.030;2022-11-15T16:30:33;97327.94;;;8.41;100.00
68226;BME280;55045;49.410;11.030;2022-11-15T16:35:09;97308.28;;;8.54;100.00
68226;BME280;55045;49.410;11.030;2022-11-15T16:38:14;97150.81;;;7.53;100.00
68226;BME280;55045;49.410;11.030;2022-11-15T16:41:18;97294.78;;;8.96;100.00
68226;BME280;55045;49.410;11.030;2022-11-15T16:44:21;97152.28;;;7.59;100.00
68226;BME280;55045;49.410;11.030;2022-11-15T16:47:26;97246.94;;;7.91;100.00
68226;BME280;55045;49.410;11.030;2022-11-15T16:50:32;97258.22;;;8.06;100.00
68226;BME280;55045;49.410;11.030;2022-11-15T16:53:36;97302.22;;;8.37;100.00
68226;BME280;55045;49.410;11.030;2022-11-15T16:56:40;97260.03;;;8.04;100.00
68226;BME280;55045;49.410;11.030;2022-11-15T16:59:44;97295.38;;;8.85;100.00
68226;BME280;55045;49.410;11.030;2022-11-15T17:02:49;97294.06;;;8.12;100.00
68226;BME280;55045;49.410;11.030;2022-11-15T17:05:57;97289.94;;;8.25;100.00
68226;BME280;55045;49.410;11.030;2022-11-15T17:09:01;97279.91;;;8.36;100.00
68226;BME280;55045;49.410;11.030;2022-11-15T17:12:04;97262.84;;;8.81;100.00
68226;BME280;55045;49.410;11.030;2022-11-15T17:15:10;97211.22;;;8.64;100.00
68226;BME280;55045;49.410;11.030;2022-11-15T17:18:13;97236.22;;;8.48;100.00
68226;BME280;55045;49.410;11.030;2022-11-15T17:21:20;97211.31;;;7.98;100.00